createdAt,value
2023-01-22T12:35:33.277Z,4.97
2023-01-22T12:54:00.860Z,5.22
2023-01-22T12:57:44.898Z,4.72
2023-01-22T13:00:47.307Z,4.10
2023-01-22T13:04:01.360Z,3.97
2023-01-22T13:07:20.308Z,3.92
2023-01-22T13:10:31.591Z,4.20
2023-01-22T13:13:56.720Z,4.20
2023-01-22T13:17:26.400Z,5.38
2023-01-22T13:20:35.662Z,5.32
2023-01-22T13:23:47.702Z,4.28
2023-01-22T13:27:00.764Z,5.15
2023-01-22T13:30:31.060Z,5.10
2023-01-22T13:33:35.462Z,4.90
2023-01-22T13:36:45.122Z,5.10
2023-01-22T13:39:49.502Z,4.43
2023-01-22T13:42:51.959Z,4.70
2023-01-22T13:45:59.015Z,5.20
2023-01-22T13:49:30.754Z,5.00
2023-01-22T13:52:38.432Z,5.72
2023-01-22T13:55:41.810Z,6.27
2023-01-22T13:58:48.828Z,5.20
2023-01-22T14:01:51.863Z,6.85
2023-01-22T14:04:59.237Z,4.97
2023-01-22T14:08:12.163Z,5.28
2023-01-22T14:11:14.826Z,5.80
2023-01-22T14:18:47.186Z,5.55
2023-01-22T14:21:49.987Z,5.97
2023-01-22T14:24:53.188Z,5.63
2023-01-22T14:28:01.653Z,5.53
2023-01-22T14:31:03.904Z,5.55
2023-01-22T14:34:07.266Z,6.43
2023-01-22T14:37:09.547Z,8.50
2023-01-22T14:40:14.180Z,6.80
2023-01-22T14:43:17.418Z,7.30
2023-01-22T14:46:20.855Z,6.63
2023-01-22T14:49:23.351Z,9.10
2023-01-22T14:52:25.675Z,6.80
2023-01-22T14:55:31.129Z,6.78
2023-01-22T14:58:36.457Z,6.70
2023-01-22T15:01:43.843Z,7.07
2023-01-22T15:04:48.604Z,6.22
2023-01-22T15:07:53.843Z,6.40
2023-01-22T15:11:02.167Z,8.07
2023-01-22T15:14:05.765Z,8.38
2023-01-22T15:17:07.967Z,6.93
2023-01-22T15:20:13.332Z,7.97
2023-01-22T15:23:15.528Z,7.35
2023-01-22T15:26:29.135Z,6.40
2023-01-22T15:29:31.433Z,7.82
2023-01-22T15:32:34.090Z,4.75
2023-01-22T15:35:38.301Z,5.03
2023-01-22T15:38:40.475Z,5.25
2023-01-22T15:41:46.187Z,5.25
2023-01-22T15:44:48.320Z,8.30
2023-01-22T15:47:51.497Z,7.53
2023-01-22T15:50:54.925Z,8.05
2023-01-22T15:54:01.707Z,7.50
2023-01-22T15:57:05.528Z,8.25
2023-01-22T16:00:08.544Z,8.82
2023-01-22T16:03:15.807Z,8.70
2023-01-22T16:06:28.478Z,8.68
2023-01-22T16:09:31.093Z,8.40
2023-01-22T16:12:35.553Z,7.57
2023-01-22T16:15:38.378Z,9.02
2023-01-22T16:18:40.744Z,8.88
2023-01-22T16:21:46.136Z,8.43
2023-01-22T16:24:48.942Z,8.68
2023-01-22T16:27:51.182Z,8.27
2023-01-22T16:30:54.104Z,7.25
2023-01-22T16:33:58.651Z,7.55
2023-01-22T16:37:00.964Z,8.45
2023-01-22T16:40:07.491Z,9.85
2023-01-22T16:43:09.519Z,7.78
2023-01-22T16:46:16.383Z,9.93
2023-01-22T16:49:24.739Z,10.05
2023-01-22T16:52:27.352Z,8.35
2023-01-22T16:55:29.398Z,9.02
2023-01-22T16:58:31.981Z,8.98
2023-01-22T17:01:35.627Z,8.30
2023-01-22T17:04:40.378Z,9.50
2023-01-22T17:07:43.539Z,10.40
2023-01-22T17:10:45.537Z,9.13
2023-01-22T17:13:48.092Z,9.13
2023-01-22T17:16:52.456Z,40.45
2023-01-22T17:19:56.302Z,22.95
2023-01-22T17:22:58.812Z,10.40
2023-01-22T17:26:06.222Z,9.45
2023-01-22T17:29:09.647Z,8.25
2023-01-22T17:32:11.848Z,8.80
2023-01-22T17:35:15.137Z,9.27
2023-01-22T17:38:25.053Z,10.20
2023-01-22T17:41:28.361Z,9.73
2023-01-22T17:44:30.586Z,10.23
2023-01-22T17:47:32.766Z,9.60
2023-01-22T17:50:37.973Z,11.40
2023-01-22T17:53:47.649Z,10.00
2023-01-22T17:56:54.542Z,11.43
2023-01-22T17:59:56.764Z,9.85
2023-01-22T18:03:03.835Z,10.68
2023-01-22T18:06:07.055Z,12.43
2023-01-22T18:09:13.735Z,12.27
2023-01-22T18:12:16.110Z,11.57
2023-01-22T18:15:18.649Z,10.85
2023-01-22T18:18:21.169Z,11.15
2023-01-22T18:21:25.122Z,12.43
2023-01-22T18:24:27.493Z,11.73
2023-01-22T18:27:29.636Z,13.48
2023-01-22T18:30:31.656Z,10.02
2023-01-22T18:33:37.378Z,13.60
2023-01-22T18:36:39.743Z,13.32
2023-01-22T18:39:42.931Z,12.00
2023-01-22T18:42:45.178Z,12.32
2023-01-22T18:45:47.543Z,13.07
2023-01-22T18:48:55.216Z,14.98
2023-01-22T18:52:01.031Z,13.18
2023-01-22T18:55:03.388Z,16.58
2023-01-22T18:58:35.282Z,11.57
2023-01-22T19:01:38.989Z,9.68
2023-01-22T19:04:41.243Z,8.15
2023-01-22T19:07:43.358Z,8.50
2023-01-22T19:10:45.704Z,8.57
2023-01-22T19:13:49.817Z,8.70
2023-01-22T19:16:53.589Z,10.85
2023-01-22T19:19:55.955Z,7.97
2023-01-22T19:23:01.022Z,8.63
2023-01-22T19:26:31.979Z,8.88
2023-01-22T19:29:37.351Z,8.63
2023-01-22T19:32:46.032Z,9.13
2023-01-22T19:38:52.186Z,9.73
2023-01-22T19:41:55.642Z,9.32
2023-01-22T19:44:58.244Z,9.00
2023-01-22T19:48:00.436Z,9.48
2023-01-22T19:51:06.369Z,9.45
2023-01-22T19:54:13.279Z,10.25
2023-01-22T19:57:16.255Z,10.25
2023-01-22T20:00:20.744Z,10.15
2023-01-22T20:03:26.652Z,11.70
2023-01-22T20:06:29.600Z,9.35
2023-01-22T20:09:33.472Z,10.90
2023-01-22T20:12:36.672Z,9.52
2023-01-22T20:15:41.668Z,9.52
2023-01-22T20:18:43.826Z,10.18
2023-01-22T20:21:47.216Z,10.35
2023-01-22T20:24:49.571Z,9.95
2023-01-22T20:27:52.023Z,9.65
2023-01-22T20:31:04.232Z,11.27
2023-01-22T20:34:07.330Z,10.70
2023-01-22T20:37:12.488Z,10.90
2023-01-22T20:40:17.707Z,9.30
2023-01-22T20:43:23.864Z,10.07
2023-01-22T20:46:30.037Z,11.68
2023-01-22T20:49:38.695Z,10.15
2023-01-22T20:52:40.865Z,8.02
2023-01-22T20:55:48.945Z,8.95
2023-01-22T20:59:12.825Z,9.52
2023-01-22T21:02:17.403Z,6.32
2023-01-22T21:05:23.665Z,10.48
2023-01-22T21:08:31.527Z,8.20
2023-01-22T21:11:35.829Z,7.95
2023-01-22T21:14:38.049Z,9.23
2023-01-22T21:17:40.167Z,10.65
2023-01-22T21:20:43.981Z,8.90
2023-01-22T21:23:52.587Z,9.80
2023-01-22T21:26:55.728Z,9.60
2023-01-22T21:29:58.064Z,9.82
2023-01-22T21:33:01.992Z,9.05
2023-01-22T21:36:05.335Z,10.77
2023-01-22T21:39:12.819Z,9.02
2023-01-22T21:42:35.187Z,10.15
2023-01-22T21:46:01.154Z,9.52
2023-01-22T21:49:18.254Z,10.20
2023-01-22T21:52:20.815Z,10.40
2023-01-22T21:55:24.314Z,14.07
2023-01-22T21:58:27.521Z,12.43
2023-01-22T22:01:32.629Z,10.60
2023-01-22T22:04:35.581Z,11.45
2023-01-22T22:07:37.608Z,10.32
2023-01-22T22:10:39.608Z,9.00
2023-01-22T22:13:43.958Z,9.30
2023-01-22T22:16:47.593Z,10.48
2023-01-22T22:19:51.475Z,7.95
2023-01-22T22:22:53.510Z,7.95
2023-01-22T22:25:59.274Z,9.10
2023-01-22T22:29:02.427Z,9.63
2023-01-22T22:32:04.850Z,9.05
2023-01-22T22:35:08.740Z,9.05
2023-01-22T22:38:15.238Z,9.43
2023-01-22T22:41:24.070Z,8.27
2023-01-22T22:44:27.343Z,7.47
2023-01-22T22:47:30.334Z,8.60
2023-01-22T22:50:35.171Z,7.05
2023-01-22T22:53:37.309Z,8.75
2023-01-22T22:56:39.900Z,8.55
2023-01-22T22:59:45.501Z,8.75
2023-01-22T23:02:48.008Z,8.40
2023-01-22T23:05:53.111Z,7.63
2023-01-22T23:08:57.807Z,7.50
2023-01-22T23:12:00.441Z,9.05
2023-01-22T23:15:03.915Z,8.18
2023-01-22T23:18:06.081Z,8.20
2023-01-22T23:21:12.892Z,7.18
2023-01-22T23:24:15.360Z,8.68
2023-01-22T23:27:17.404Z,8.48
2023-01-22T23:30:20.007Z,7.25
2023-01-22T23:33:24.634Z,8.07
2023-01-22T23:36:28.001Z,7.15
2023-01-22T23:39:30.167Z,8.50
2023-01-22T23:42:34.626Z,8.48
2023-01-22T23:45:39.604Z,7.30
2023-01-22T23:48:42.544Z,7.55
2023-01-22T23:51:45.281Z,6.03
2023-01-22T23:54:47.513Z,7.95
2023-01-22T23:57:49.746Z,6.55
